Time;durP1;ratioP1;P1;durP2;ratioP2;P2;SDS_P1;SDS_P2;PMS_P1;PMS_P2;Temp;Humidity;BMP_temperature;BMP_pressure;BME280_temperature;BME280_humidity;BME280_pressure;Samples;Min_cycle;Max_cycle;Signal;HPM_P1;HPM_P2
2022/04/04 00:00:51;;;;;;;4.72;3.15;;;;;;;;;;1716862;83;21520;-70
2022/04/04 00:03:18;;;;;;;3.35;2.47;;;;;;;;;;1716886;82;21604;-70
2022/04/04 00:05:45;;;;;;;4.28;3.10;;;;;;;;;;1717055;83;21112;-70
2022/04/04 00:08:12;;;;;;;4.75;3.05;;;;;;;;;;1716804;83;21085;-70
2022/04/04 00:10:39;;;;;;;3.17;2.55;;;;;;;;;;1716854;83;21113;-70
2022/04/04 00:13:05;;;;;;;3.35;2.77;;;;;;;;;;1716940;83;21042;-70
2022/04/04 00:15:32;;;;;;;3.90;2.65;;;;;;;;;;1716902;83;21053;-69
2022/04/04 00:18:06;;;;;;;5.50;2.90;;;;;;;;;;1717069;83;21532;-70
2022/04/04 00:20:34;;;;;;;5.85;2.90;;;;;;;;;;1716742;83;21580;-70
2022/04/04 00:23:00;;;;;;;4.67;3.20;;;;;;;;;;1717128;83;21077;-70
2022/04/04 00:25:29;;;;;;;5.87;3.08;;;;;;;;;;1716697;83;21141;-70
2022/04/04 00:27:57;;;;;;;5.90;3.02;;;;;;;;;;1716874;83;21588;-69
2022/04/04 00:30:23;;;;;;;5.00;2.98;;;;;;;;;;1716948;83;21529;-69
2022/04/04 00:32:51;;;;;;;4.78;3.08;;;;;;;;;;1716814;83;21033;-72
2022/04/04 00:35:17;;;;;;;4.10;2.80;;;;;;;;;;1716576;83;21116;-71
2022/04/04 00:37:44;;;;;;;7.00;3.52;;;;;;;;;;1716829;83;21561;-69
2022/04/04 00:40:12;;;;;;;5.35;3.22;;;;;;;;;;1716994;83;21030;-69
2022/04/04 00:42:39;;;;;;;4.55;3.37;;;;;;;;;;1716723;83;21069;-69
2022/04/04 00:45:05;;;;;;;4.78;3.25;;;;;;;;;;1716825;83;21045;-69
2022/04/04 00:47:33;;;;;;;5.97;3.60;;;;;;;;;;1716695;83;21660;-69
2022/04/04 00:50:01;;;;;;;4.25;3.08;;;;;;;;;;1716722;83;21050;-69
2022/04/04 00:52:28;;;;;;;5.55;3.35;;;;;;;;;;1716980;83;21037;-69
2022/04/04 00:54:54;;;;;;;4.90;3.00;;;;;;;;;;1716526;83;21068;-69
2022/04/04 00:57:20;;;;;;;7.67;3.62;;;;;;;;;;1722298;83;21080;-69
2022/04/04 00:59:48;;;;;;;4.72;3.00;;;;;;;;;;1729460;82;21616;-69
2022/04/04 02:08:39;;;;;;;5.08;2.40;;;;;;;;;;1801904;79;23720;-70
2022/04/04 02:11:07;;;;;;;5.95;2.80;;;;;;;;;;1761815;81;21060;-70
2022/04/04 02:13:35;;;;;;;5.78;3.08;;;;;;;;;;1761450;81;21136;-70
2022/04/04 02:16:03;;;;;;;9.00;3.70;;;;;;;;;;1761751;81;21037;-70
2022/04/04 02:18:31;;;;;;;7.15;3.10;;;;;;;;;;1761863;81;21032;-70
2022/04/04 02:20:58;;;;;;;5.45;3.05;;;;;;;;;;1761679;81;21520;-70
2022/04/04 02:23:24;;;;;;;5.62;3.30;;;;;;;;;;1761676;81;21576;-69
2022/04/04 02:25:52;;;;;;;4.67;2.85;;;;;;;;;;1761683;81;21057;-70
2022/04/04 02:28:19;;;;;;;6.50;3.62;;;;;;;;;;1761573;81;21080;-70
2022/04/04 02:30:46;;;;;;;6.00;3.30;;;;;;;;;;1761647;81;21048;-70
2022/04/04 02:33:13;;;;;;;5.25;3.10;;;;;;;;;;1761517;81;21104;-70
2022/04/04 02:35:39;;;;;;;5.65;3.47;;;;;;;;;;1761415;81;21551;-70
2022/04/04 02:38:07;;;;;;;4.95;2.77;;;;;;;;;;1761782;81;21052;-70
2022/04/04 02:40:34;;;;;;;4.90;3.12;;;;;;;;;;1761520;81;21045;-70
2022/04/04 02:43:01;;;;;;;5.22;3.35;;;;;;;;;;1761914;81;21056;-70
2022/04/04 02:45:28;;;;;;;4.28;2.80;;;;;;;;;;1761627;81;21057;-70
2022/04/04 02:47:54;;;;;;;3.95;2.80;;;;;;;;;;1761638;81;21049;-70
2022/04/04 02:50:21;;;;;;;5.90;3.22;;;;;;;;;;1761955;81;21066;-70
2022/04/04 02:52:47;;;;;;;6.58;3.27;;;;;;;;;;1761747;81;21064;-70
2022/04/04 02:57:59;;;;;;;4.47;2.95;;;;;;;;;;1761655;81;21574;-70
2022/04/04 03:00:25;;;;;;;8.78;3.55;;;;;;;;;;1761875;81;21543;-70
2022/04/04 03:02:52;;;;;;;4.87;3.33;;;;;;;;;;1759404;81;21044;-70
2022/04/04 03:05:18;;;;;;;6.22;3.47;;;;;;;;;;1729845;82;21045;-70
2022/04/04 03:07:45;;;;;;;6.75;3.20;;;;;;;;;;1730086;82;21045;-70
2022/04/04 03:10:12;;;;;;;8.20;4.00;;;;;;;;;;1730370;82;21045;-69
2022/04/04 03:12:41;;;;;;;6.15;3.22;;;;;;;;;;1730494;83;21068;-70
2022/04/04 03:15:08;;;;;;;5.92;3.20;;;;;;;;;;1730456;82;21028;-70
2022/04/04 03:17:35;;;;;;;4.62;2.65;;;;;;;;;;1730541;82;21575;-71
2022/04/04 03:20:05;;;;;;;4.90;3.20;;;;;;;;;;1730082;82;21048;-70
2022/04/04 03:22:32;;;;;;;5.42;3.12;;;;;;;;;;1729767;82;21100;-70
2022/04/04 03:24:58;;;;;;;6.00;3.52;;;;;;;;;;1729899;83;21053;-70
2022/04/04 03:27:24;;;;;;;5.90;3.70;;;;;;;;;;1729783;82;21087;-70
2022/04/04 03:29:51;;;;;;;7.65;3.85;;;;;;;;;;1729761;83;21108;-70
2022/04/04 03:32:17;;;;;;;7.60;4.28;;;;;;;;;;1729944;83;21068;-70
2022/04/04 03:34:43;;;;;;;6.33;3.70;;;;;;;;;;1729639;83;21607;-70
2022/04/04 03:37:11;;;;;;;4.80;3.40;;;;;;;;;;1730043;82;21525;-69
2022/04/04 03:39:37;;;;;;;9.35;4.05;;;;;;;;;;1729519;83;21138;-69
2022/04/04 03:42:05;;;;;;;8.85;4.28;;;;;;;;;;1729522;83;21539;-70
2022/04/04 03:44:31;;;;;;;7.72;3.77;;;;;;;;;;1729662;83;21063;-70
2022/04/04 03:46:57;;;;;;;6.53;3.33;;;;;;;;;;1729630;82;21076;-69
2022/04/04 03:49:24;;;;;;;7.65;3.37;;;;;;;;;;1729849;82;21080;-70
2022/04/04 03:51:51;;;;;;;6.28;3.40;;;;;;;;;;1729485;82;21611;-70
2022/04/04 03:54:18;;;;;;;7.40;3.80;;;;;;;;;;1729661;83;21654;-70
2022/04/04 03:56:45;;;;;;;8.03;3.55;;;;;;;;;;1729741;82;21013;-70
2022/04/04 03:59:12;;;;;;;7.97;3.58;;;;;;;;;;1729477;82;21080;-70
2022/04/04 04:01:39;;;;;;;6.20;3.30;;;;;;;;;;1729481;83;21033;-70
2022/04/04 04:04:06;;;;;;;4.60;3.02;;;;;;;;;;1729635;81;21115;-70
2022/04/04 04:06:33;;;;;;;6.15;3.25;;;;;;;;;;1729719;83;21044;-70
2022/04/04 04:09:01;;;;;;;4.22;2.90;;;;;;;;;;1729498;82;21029;-69
2022/04/04 04:11:28;;;;;;;5.72;3.10;;;;;;;;;;1729574;83;21064;-69
2022/04/04 04:13:57;;;;;;;5.70;3.50;;;;;;;;;;1729754;83;21561;-69
2022/04/04 04:16:24;;;;;;;4.47;2.92;;;;;;;;;;1729603;83;21083;-70
2022/04/04 04:18:50;;;;;;;4.83;3.20;;;;;;;;;;1729423;83;21041;-70
2022/04/04 04:21:18;;;;;;;5.62;3.27;;;;;;;;;;1729726;83;21080;-70
2022/04/04 04:23:44;;;;;;;7.50;3.83;;;;;;;;;;1729544;83;21091;-70
2022/04/04 04:26:13;;;;;;;5.40;3.02;;;;;;;;;;1729751;82;21045;-69
2022/04/04 04:28:39;;;;;;;6.55;3.62;;;;;;;;;;1729518;82;21053;-70
2022/04/04 04:31:06;;;;;;;6.75;3.50;;;;;;;;;;1729782;83;21576;-70
2022/04/04 04:33:33;;;;;;;4.50;3.10;;;;;;;;;;1729593;82;21088;-69
2022/04/04 04:36:00;;;;;;;5.40;3.52;;;;;;;;;;1729547;83;21045;-69
2022/04/04 04:38:26;;;;;;;6.37;4.28;;;;;;;;;;1729787;82;21057;-70
2022/04/04 04:40:53;;;;;;;5.45;3.33;;;;;;;;;;1729662;83;21528;-70
2022/04/04 04:43:19;;;;;;;6.03;3.45;;;;;;;;;;1729742;82;21611;-70
2022/04/04 04:45:45;;;;;;;5.00;3.10;;;;;;;;;;1729578;83;21068;-70
2022/04/04 04:48:12;;;;;;;4.33;2.98;;;;;;;;;;1729517;83;21112;-70
2022/04/04 04:50:38;;;;;;;5.37;3.22;;;;;;;;;;1729910;82;21122;-70
2022/04/04 04:53:05;;;;;;;6.37;3.40;;;;;;;;;;1729696;83;21531;-70
2022/04/04 04:55:32;;;;;;;4.85;2.98;;;;;;;;;;1729790;82;21017;-70
2022/04/04 04:57:58;;;;;;;5.37;3.15;;;;;;;;;;1729826;82;21495;-70
2022/04/04 05:00:25;;;;;;;4.50;2.92;;;;;;;;;;1729852;82;21024;-70
2022/04/04 05:05:37;;;;;;;5.75;3.17;;;;;;;;;;1729654;83;21052;-69
2022/04/04 05:08:05;;;;;;;5.83;3.70;;;;;;;;;;1729634;83;21052;-69
2022/04/04 05:10:31;;;;;;;6.12;3.80;;;;;;;;;;1729559;83;21084;-70
2022/04/04 05:12:58;;;;;;;6.28;3.08;;;;;;;;;;1729610;83;21056;-70
2022/04/04 05:15:24;;;;;;;5.15;3.50;;;;;;;;;;1730022;83;21048;-70
2022/04/04 05:17:52;;;;;;;6.10;3.20;;;;;;;;;;1729496;82;21080;-71
2022/04/04 05:20:20;;;;;;;6.62;4.05;;;;;;;;;;1729655;83;21044;-71
2022/04/04 05:22:47;;;;;;;7.72;4.30;;;;;;;;;;1729465;83;21068;-71
2022/04/04 05:25:14;;;;;;;7.72;5.03;;;;;;;;;;1729531;83;21076;-71
2022/04/04 05:27:40;;;;;;;7.67;4.58;;;;;;;;;;1729649;83;21088;-71
2022/04/04 05:30:08;;;;;;;9.30;4.97;;;;;;;;;;1729472;82;21032;-71
2022/04/04 05:32:35;;;;;;;8.20;5.30;;;;;;;;;;1729847;83;21547;-71
2022/04/04 05:35:05;;;;;;;6.08;3.83;;;;;;;;;;1729352;83;21103;-71
2022/04/04 05:37:35;;;;;;;6.53;4.80;;;;;;;;;;1729850;83;21068;-71
2022/04/04 05:40:03;;;;;;;7.37;4.35;;;;;;;;;;1729441;82;21056;-71
2022/04/04 05:42:30;;;;;;;7.80;4.87;;;;;;;;;;1729526;83;21085;-71
2022/04/04 05:44:56;;;;;;;8.40;5.08;;;;;;;;;;1729661;83;21053;-71
2022/04/04 05:47:26;;;;;;;5.58;3.52;;;;;;;;;;1729439;82;21063;-70
2022/04/04 05:49:52;;;;;;;6.28;4.33;;;;;;;;;;1729601;83;21057;-70
2022/04/04 05:52:20;;;;;;;6.58;4.12;;;;;;;;;;1729426;83;21057;-69
2022/04/04 05:54:57;;;;;;;5.33;4.20;;;;;;;;;;1729571;83;21068;-69
2022/04/04 05:57:24;;;;;;;5.03;3.92;;;;;;;;;;1729858;82;21599;-69
2022/04/04 05:59:51;;;;;;;5.78;3.98;;;;;;;;;;1729583;83;21040;-69
2022/04/04 06:02:19;;;;;;;6.00;4.10;;;;;;;;;;1729784;82;21041;-69
2022/04/04 06:04:47;;;;;;;6.15;4.37;;;;;;;;;;1729493;81;21131;-69
2022/04/04 06:07:14;;;;;;;5.53;3.72;;;;;;;;;;1729642;83;20997;-69
2022/04/04 06:09:40;;;;;;;5.97;4.35;;;;;;;;;;1729323;83;21033;-71
2022/04/04 06:12:08;;;;;;;6.50;5.00;;;;;;;;;;1729592;83;21127;-71
2022/04/04 06:14:35;;;;;;;6.90;4.33;;;;;;;;;;1729789;83;21036;-71
2022/04/04 06:17:06;;;;;;;6.67;4.58;;;;;;;;;;1729474;82;21092;-71
2022/04/04 06:19:34;;;;;;;5.78;4.42;;;;;;;;;;1729391;82;22085;-71
2022/04/04 06:22:03;;;;;;;6.78;5.10;;;;;;;;;;1729777;82;21084;-69
2022/04/04 06:24:31;;;;;;;6.03;3.98;;;;;;;;;;1729582;82;21037;-70
2022/04/04 06:26:58;;;;;;;7.25;4.47;;;;;;;;;;1730057;82;21112;-70
2022/04/04 06:29:25;;;;;;;5.78;4.28;;;;;;;;;;1729742;82;21516;-71
2022/04/04 06:31:51;;;;;;;6.30;4.47;;;;;;;;;;1729695;82;21595;-71
2022/04/04 06:34:17;;;;;;;5.67;4.53;;;;;;;;;;1729938;82;21587;-70
2022/04/04 06:36:45;;;;;;;7.58;4.67;;;;;;;;;;1729474;82;21583;-71
2022/04/04 06:39:11;;;;;;;6.10;4.22;;;;;;;;;;1729939;82;21028;-71
2022/04/04 06:41:37;;;;;;;7.67;4.17;;;;;;;;;;1729520;82;21084;-70
2022/04/04 06:44:04;;;;;;;5.28;3.87;;;;;;;;;;1729701;82;21638;-71
2022/04/04 06:46:31;;;;;;;5.22;4.10;;;;;;;;;;1729435;83;21045;-71
2022/04/04 06:48:58;;;;;;;6.33;4.10;;;;;;;;;;1729768;83;21525;-71
2022/04/04 06:51:24;;;;;;;7.35;4.10;;;;;;;;;;1729496;82;21103;-71
2022/04/04 06:53:51;;;;;;;6.35;4.33;;;;;;;;;;1729571;83;21080;-71
2022/04/04 06:56:18;;;;;;;6.72;3.70;;;;;;;;;;1729812;83;21071;-70
2022/04/04 06:58:44;;;;;;;7.08;4.65;;;;;;;;;;1729886;82;20978;-71
2022/04/04 07:01:10;;;;;;;5.90;4.35;;;;;;;;;;1729817;83;21037;-71
2022/04/04 07:03:37;;;;;;;6.08;4.28;;;;;;;;;;1729670;81;21092;-71
2022/04/04 07:06:03;;;;;;;6.10;4.12;;;;;;;;;;1729627;83;21052;-70
2022/04/04 07:08:29;;;;;;;7.45;3.98;;;;;;;;;;1725130;83;21077;-71
2022/04/04 07:10:57;;;;;;;5.50;3.70;;;;;;;;;;1716679;83;21148;-71
2022/04/04 07:14:06;;;;;;;5.53;3.90;;;;;;;;;;1819843;79;23534;-70
2022/04/04 07:16:32;;;;;;;7.78;4.00;;;;;;;;;;1792704;80;21091;-70
2022/04/04 07:18:59;;;;;;;4.97;3.47;;;;;;;;;;1792883;80;22206;-71
2022/04/04 07:21:27;;;;;;;5.72;4.00;;;;;;;;;;1792687;80;21028;-71
2022/04/04 07:23:54;;;;;;;5.70;3.80;;;;;;;;;;1792985;80;21043;-71
2022/04/04 07:26:22;;;;;;;6.45;3.67;;;;;;;;;;1793118;80;21005;-70
2022/04/04 07:28:49;;;;;;;7.35;4.20;;;;;;;;;;1792966;80;21049;-70
2022/04/04 07:31:16;;;;;;;5.75;4.25;;;;;;;;;;1793148;80;21056;-71
2022/04/04 07:33:42;;;;;;;5.30;4.03;;;;;;;;;;1792815;80;21028;-72
2022/04/04 07:36:08;;;;;;;5.50;4.25;;;;;;;;;;1792864;80;21044;-72
2022/04/04 07:38:34;;;;;;;5.42;4.00;;;;;;;;;;1793216;80;21079;-71
2022/04/04 07:41:00;;;;;;;4.28;3.45;;;;;;;;;;1792848;80;21001;-71
2022/04/04 07:43:27;;;;;;;5.90;4.00;;;;;;;;;;1793224;80;21069;-70
2022/04/04 07:45:53;;;;;;;5.75;3.83;;;;;;;;;;1792845;80;21051;-72
2022/04/04 07:48:19;;;;;;;4.83;3.33;;;;;;;;;;1792997;80;21032;-72
2022/04/04 07:50:45;;;;;;;6.58;3.50;;;;;;;;;;1793035;80;21094;-71
2022/04/04 07:53:12;;;;;;;6.65;3.60;;;;;;;;;;1793025;80;21056;-71
2022/04/04 07:55:40;;;;;;;6.45;3.80;;;;;;;;;;1793202;80;21051;-71
2022/04/04 07:58:08;;;;;;;5.60;3.58;;;;;;;;;;1792927;80;21067;-71
2022/04/04 08:00:35;;;;;;;5.33;3.45;;;;;;;;;;1792957;80;21031;-71
2022/04/04 08:03:02;;;;;;;8.15;3.52;;;;;;;;;;1786592;80;21100;-71
2022/04/04 08:05:29;;;;;;;5.05;2.98;;;;;;;;;;1758143;81;21075;-71
2022/04/04 08:07:56;;;;;;;6.60;3.08;;;;;;;;;;1758380;81;21383;-71
2022/04/04 08:10:22;;;;;;;4.72;3.27;;;;;;;;;;1758042;81;21532;-70
2022/04/04 08:12:52;;;;;;;4.45;3.50;;;;;;;;;;1752051;81;21092;-71
2022/04/04 08:15:18;;;;;;;7.97;3.50;;;;;;;;;;1742050;82;21076;-70
2022/04/04 08:17:45;;;;;;;5.47;3.12;;;;;;;;;;1742281;82;21604;-70
2022/04/04 08:20:13;;;;;;;4.55;3.30;;;;;;;;;;1742252;82;21113;-71
2022/04/04 08:22:43;;;;;;;4.75;3.05;;;;;;;;;;1741986;82;21060;-72
2022/04/04 08:25:10;;;;;;;4.15;2.67;;;;;;;;;;1741886;82;21060;-71
2022/04/04 08:27:36;;;;;;;5.58;3.00;;;;;;;;;;1741896;82;21104;-70
2022/04/04 08:30:05;;;;;;;7.40;3.60;;;;;;;;;;1741658;82;21049;-70
2022/04/04 08:32:36;;;;;;;4.75;2.70;;;;;;;;;;1741856;82;21092;-70
2022/04/04 08:35:02;;;;;;;3.65;2.62;;;;;;;;;;1741445;82;21647;-70
2022/04/04 08:37:28;;;;;;;3.85;3.05;;;;;;;;;;1741924;82;20974;-70
2022/04/04 08:39:55;;;;;;;4.00;2.45;;;;;;;;;;1741424;82;21029;-70
2022/04/04 08:42:26;;;;;;;3.72;2.90;;;;;;;;;;1741954;82;21119;-71
2022/04/04 08:44:49;;;;;;;5.58;3.10;;;;;;;;;;1741157;82;21081;-71
2022/04/04 08:47:18;;;;;;;3.98;2.62;;;;;;;;;;1742148;82;21068;-71
2022/04/04 08:49:44;;;;;;;3.90;2.62;;;;;;;;;;1741701;82;21650;-70
2022/04/04 08:52:10;;;;;;;3.35;2.62;;;;;;;;;;1741891;82;21057;-73
2022/04/04 08:54:37;;;;;;;3.75;2.27;;;;;;;;;;1741621;82;21057;-70
2022/04/04 08:57:03;;;;;;;5.05;2.83;;;;;;;;;;1741586;82;21065;-70
2022/04/04 08:59:30;;;;;;;3.95;2.80;;;;;;;;;;1741957;82;21013;-70
2022/04/04 09:01:56;;;;;;;4.05;2.75;;;;;;;;;;1741604;82;21049;-70
2022/04/04 09:04:23;;;;;;;4.60;2.50;;;;;;;;;;1741711;81;21132;-70
2022/04/04 09:06:54;;;;;;;5.95;3.00;;;;;;;;;;1741470;82;21124;-70
2022/04/04 09:09:22;;;;;;;5.08;2.72;;;;;;;;;;1741846;82;21045;-71
2022/04/04 09:11:54;;;;;;;3.55;2.52;;;;;;;;;;1733949;82;21627;-71
2022/04/04 09:14:21;;;;;;;4.37;3.15;;;;;;;;;;1741724;82;21022;-71
2022/04/04 09:16:54;;;;;;;4.33;2.60;;;;;;;;;;1741380;82;21068;-71
2022/04/04 09:19:26;;;;;;;3.90;2.77;;;;;;;;;;1741895;82;21532;-71
2022/04/04 09:21:53;;;;;;;4.35;2.50;;;;;;;;;;1741937;82;21073;-69
2022/04/04 09:24:19;;;;;;;6.72;2.60;;;;;;;;;;1741613;82;21120;-69
2022/04/04 09:26:47;;;;;;;3.47;2.50;;;;;;;;;;1741788;82;21045;-69
2022/04/04 09:29:16;;;;;;;3.00;2.30;;;;;;;;;;1741901;82;21045;-70
2022/04/04 09:31:57;;;;;;;3.15;2.17;;;;;;;;;;1741606;82;21074;-70
2022/04/04 09:34:23;;;;;;;3.47;2.40;;;;;;;;;;1741786;82;21036;-71
2022/04/04 09:36:51;;;;;;;4.10;2.60;;;;;;;;;;1741481;82;21042;-72
2022/04/04 09:39:17;;;;;;;3.80;2.42;;;;;;;;;;1741763;82;21065;-71
2022/04/04 09:41:43;;;;;;;4.33;2.85;;;;;;;;;;1741537;82;21108;-71
2022/04/04 09:44:11;;;;;;;7.95;3.20;;;;;;;;;;1741723;82;21112;-71
2022/04/04 09:46:38;;;;;;;6.37;2.98;;;;;;;;;;1741862;82;21064;-71
2022/04/04 09:49:15;;;;;;;6.08;2.55;;;;;;;;;;1741694;82;21088;-71
2022/04/04 09:51:44;;;;;;;3.35;2.10;;;;;;;;;;1741708;82;21037;-71
2022/04/04 09:54:15;;;;;;;4.30;2.20;;;;;;;;;;1741634;82;21061;-71
2022/04/04 09:56:41;;;;;;;3.02;2.17;;;;;;;;;;1741753;82;21617;-71
2022/04/04 09:59:09;;;;;;;4.00;2.50;;;;;;;;;;1741532;82;21116;-72
2022/04/04 10:01:36;;;;;;;4.53;2.37;;;;;;;;;;1741685;82;21572;-71
2022/04/04 10:04:03;;;;;;;4.70;2.77;;;;;;;;;;1741803;81;21013;-71
2022/04/04 10:06:30;;;;;;;4.28;2.60;;;;;;;;;;1720747;82;21096;-71
2022/04/04 10:08:57;;;;;;;4.53;2.85;;;;;;;;;;1741757;82;21106;-70
2022/04/04 10:11:25;;;;;;;4.47;2.50;;;;;;;;;;1741526;82;21088;-70
2022/04/04 10:13:54;;;;;;;4.37;2.47;;;;;;;;;;1741633;82;21085;-70
2022/04/04 10:16:24;;;;;;;4.15;2.10;;;;;;;;;;1741547;82;21029;-70
2022/04/04 10:18:51;;;;;;;2.83;1.98;;;;;;;;;;1741720;82;21514;-71
2022/04/04 10:21:17;;;;;;;2.65;2.17;;;;;;;;;;1741917;82;21061;-70
2022/04/04 10:23:45;;;;;;;3.20;2.10;;;;;;;;;;1741744;82;21037;-70
2022/04/04 10:26:12;;;;;;;4.67;2.40;;;;;;;;;;1721031;82;21088;-70
2022/04/04 10:28:38;;;;;;;3.80;2.37;;;;;;;;;;1741723;82;21084;-70
2022/04/04 10:31:12;;;;;;;3.67;2.30;;;;;;;;;;1741583;82;21045;-70
2022/04/04 10:33:39;;;;;;;4.08;2.37;;;;;;;;;;1741750;82;21041;-71
2022/04/04 10:36:06;;;;;;;2.90;2.20;;;;;;;;;;1741491;82;21065;-70
2022/04/04 10:38:34;;;;;;;2.92;2.40;;;;;;;;;;1741848;82;21001;-70
2022/04/04 10:41:02;;;;;;;3.12;2.12;;;;;;;;;;1740651;82;21017;-71
2022/04/04 10:43:32;;;;;;;3.45;2.65;;;;;;;;;;1742054;82;21013;-71
2022/04/04 10:46:00;;;;;;;3.45;2.50;;;;;;;;;;1741653;82;21018;-71
2022/04/04 10:48:27;;;;;;;3.33;2.10;;;;;;;;;;1741719;82;21033;-72
2022/04/04 10:50:53;;;;;;;5.33;2.40;;;;;;;;;;1741579;82;21080;-70
2022/04/04 10:53:28;;;;;;;4.25;2.55;;;;;;;;;;1741528;82;21073;-71
2022/04/04 10:55:54;;;;;;;6.08;2.55;;;;;;;;;;1730515;82;21093;-71
2022/04/04 10:58:21;;;;;;;4.90;2.67;;;;;;;;;;1741482;82;21080;-72
2022/04/04 11:00:55;;;;;;;4.03;2.60;;;;;;;;;;1741695;82;21041;-71
2022/04/04 11:03:27;;;;;;;2.72;2.00;;;;;;;;;;1741507;81;21091;-70
2022/04/04 11:08:44;;;;;;;5.10;2.40;;;;;;;;;;1741534;82;21097;-69
2022/04/04 11:11:19;;;;;;;5.90;2.58;;;;;;;;;;1740087;82;21089;-70
2022/04/04 11:13:46;;;;;;;4.08;2.90;;;;;;;;;;1741412;82;21030;-72
2022/04/04 11:16:17;;;;;;;5.08;2.58;;;;;;;;;;1741294;82;21552;-71
2022/04/04 11:18:52;;;;;;;3.52;2.33;;;;;;;;;;1741441;82;21057;-70
2022/04/04 11:21:20;;;;;;;3.65;2.40;;;;;;;;;;1741439;82;21077;-71
2022/04/04 11:23:47;;;;;;;3.58;2.40;;;;;;;;;;1738221;82;21556;-71
2022/04/04 11:26:14;;;;;;;4.28;2.55;;;;;;;;;;1741534;82;21073;-69
2022/04/04 11:28:42;;;;;;;5.30;2.47;;;;;;;;;;1721091;82;21013;-70
2022/04/04 11:31:09;;;;;;;4.97;2.70;;;;;;;;;;1741455;82;21097;-69
2022/04/04 11:33:48;;;;;;;7.30;2.60;;;;;;;;;;1741765;82;21553;-70
2022/04/04 11:36:24;;;;;;;4.70;3.05;;;;;;;;;;1741786;82;21014;-70
2022/04/04 11:38:57;;;;;;;3.00;2.25;;;;;;;;;;1741875;82;21029;-69
2022/04/04 11:41:22;;;;;;;4.30;2.92;;;;;;;;;;1741204;82;21120;-70
2022/04/04 11:43:50;;;;;;;4.75;3.55;;;;;;;;;;1741916;82;21096;-69
2022/04/04 11:46:22;;;;;;;4.50;2.50;;;;;;;;;;1741723;82;21052;-71
2022/04/04 11:48:54;;;;;;;3.58;2.47;;;;;;;;;;1741760;82;21057;-69
2022/04/04 11:51:20;;;;;;;4.35;2.77;;;;;;;;;;1741531;82;21050;-69
2022/04/04 11:53:46;;;;;;;5.28;2.87;;;;;;;;;;1741572;82;21057;-71
2022/04/04 11:56:20;;;;;;;4.00;2.50;;;;;;;;;;1741682;82;21049;-69
2022/04/04 11:58:51;;;;;;;4.42;2.90;;;;;;;;;;1741054;82;21525;-71
2022/04/04 12:01:17;;;;;;;4.10;2.90;;;;;;;;;;1742062;82;21565;-71
2022/04/04 12:03:49;;;;;;;4.87;2.77;;;;;;;;;;1741635;81;21112;-70
2022/04/04 12:06:12;;;;;;;4.30;2.25;;;;;;;;;;1741045;82;21076;-71
2022/04/04 12:08:42;;;;;;;3.87;2.40;;;;;;;;;;1720888;82;21045;-70
2022/04/04 12:11:07;;;;;;;4.58;2.85;;;;;;;;;;1720863;82;21073;-71
2022/04/04 12:13:34;;;;;;;4.90;3.00;;;;;;;;;;1743728;82;21124;-72
2022/04/04 12:16:00;;;;;;;5.83;2.55;;;;;;;;;;1720190;82;21116;-71
2022/04/04 12:18:28;;;;;;;7.08;3.70;;;;;;;;;;1749613;82;21061;-73
2022/04/04 12:20:56;;;;;;;4.75;2.80;;;;;;;;;;1749575;82;21092;-70
2022/04/04 12:26:09;;;;;;;4.90;2.80;;;;;;;;;;1749538;82;21100;-70
2022/04/04 12:28:37;;;;;;;5.10;3.30;;;;;;;;;;1749817;82;21084;-70
2022/04/04 12:31:22;;;;;;;5.03;3.12;;;;;;;;;;1749349;82;21075;-70
2022/04/04 12:34:00;;;;;;;5.12;3.25;;;;;;;;;;1749759;82;21044;-69
2022/04/04 12:36:30;;;;;;;5.00;2.80;;;;;;;;;;1749798;82;21548;-70
2022/04/04 12:38:57;;;;;;;5.85;3.20;;;;;;;;;;1749566;82;21069;-70
2022/04/04 12:41:25;;;;;;;5.00;3.27;;;;;;;;;;1749856;82;21045;-70
2022/04/04 12:43:59;;;;;;;5.25;3.00;;;;;;;;;;1749612;82;21037;-70
2022/04/04 12:46:27;;;;;;;5.35;3.02;;;;;;;;;;1748865;82;21088;-70
2022/04/04 12:48:55;;;;;;;6.10;2.90;;;;;;;;;;1749788;82;21112;-70
2022/04/04 12:51:25;;;;;;;4.47;2.87;;;;;;;;;;1749640;82;21032;-71
2022/04/04 12:53:53;;;;;;;4.35;2.72;;;;;;;;;;1749447;82;21137;-71
2022/04/04 12:56:20;;;;;;;5.25;2.98;;;;;;;;;;1720086;82;21603;-71
2022/04/04 12:59:03;;;;;;;4.75;3.00;;;;;;;;;;1749643;82;21120;-71
2022/04/04 13:01:29;;;;;;;4.40;2.70;;;;;;;;;;1749860;82;21643;-70
2022/04/04 13:03:56;;;;;;;4.75;2.72;;;;;;;;;;1749695;81;21575;-70
2022/04/04 13:06:22;;;;;;;6.65;2.85;;;;;;;;;;1749754;82;21065;-70
2022/04/04 13:08:56;;;;;;;4.97;2.75;;;;;;;;;;1749872;82;21155;-70
2022/04/04 13:11:28;;;;;;;4.12;2.62;;;;;;;;;;1749657;82;21068;-70
2022/04/04 13:13:56;;;;;;;5.28;3.35;;;;;;;;;;1748617;82;21036;-70
2022/04/04 13:16:30;;;;;;;4.85;2.90;;;;;;;;;;1749991;82;20966;-69
2022/04/04 13:18:57;;;;;;;5.40;2.60;;;;;;;;;;1749718;82;21057;-70
2022/04/04 13:21:23;;;;;;;4.03;2.45;;;;;;;;;;1749594;82;21092;-71
2022/04/04 13:23:49;;;;;;;4.53;2.40;;;;;;;;;;1749455;82;21063;-71
2022/04/04 13:26:16;;;;;;;3.30;2.37;;;;;;;;;;1749711;82;21104;-71
2022/04/04 13:28:42;;;;;;;4.25;2.55;;;;;;;;;;1749630;82;21088;-71
2022/04/04 13:31:09;;;;;;;5.65;2.70;;;;;;;;;;1749434;82;21103;-69
2022/04/04 13:33:36;;;;;;;4.62;2.80;;;;;;;;;;1749696;82;21088;-69
2022/04/04 13:36:04;;;;;;;3.92;2.75;;;;;;;;;;1749321;82;21064;-69
2022/04/04 13:38:32;;;;;;;5.12;3.30;;;;;;;;;;1749645;82;21157;-71
2022/04/04 13:40:58;;;;;;;4.87;2.92;;;;;;;;;;1749454;82;21021;-69
2022/04/04 13:43:26;;;;;;;5.25;3.10;;;;;;;;;;1749601;82;21045;-70
2022/04/04 13:45:54;;;;;;;4.22;2.60;;;;;;;;;;1749549;82;21052;-70
2022/04/04 13:48:20;;;;;;;4.60;2.72;;;;;;;;;;1749515;82;21064;-69
2022/04/04 13:50:48;;;;;;;4.50;2.42;;;;;;;;;;1749627;82;21001;-69
2022/04/04 13:53:16;;;;;;;5.72;3.05;;;;;;;;;;1749478;82;21524;-70
2022/04/04 13:55:42;;;;;;;3.85;2.50;;;;;;;;;;1749790;82;21544;-70
2022/04/04 13:58:09;;;;;;;3.75;2.55;;;;;;;;;;1749473;82;21032;-69
2022/04/04 14:00:36;;;;;;;4.28;2.90;;;;;;;;;;1749559;82;21079;-70
2022/04/04 14:03:03;;;;;;;4.83;2.85;;;;;;;;;;1749500;81;21139;-70
2022/04/04 14:05:30;;;;;;;4.83;3.02;;;;;;;;;;1749373;82;21095;-70
2022/04/04 14:07:56;;;;;;;4.75;3.22;;;;;;;;;;1749291;82;21115;-70
2022/04/04 14:10:22;;;;;;;5.92;3.20;;;;;;;;;;1749540;82;21107;-70
2022/04/04 14:12:49;;;;;;;4.33;3.00;;;;;;;;;;1749527;82;21096;-70
2022/04/04 14:15:17;;;;;;;4.70;2.90;;;;;;;;;;1749649;82;21552;-70
2022/04/04 14:17:44;;;;;;;5.83;3.58;;;;;;;;;;1749926;82;21041;-70
2022/04/04 14:20:12;;;;;;;5.35;2.98;;;;;;;;;;1750313;82;21564;-71
2022/04/04 14:22:40;;;;;;;7.00;4.08;;;;;;;;;;1749849;82;21096;-70
2022/04/04 14:25:08;;;;;;;5.33;3.30;;;;;;;;;;1750209;82;21524;-71
2022/04/04 14:27:35;;;;;;;5.53;3.17;;;;;;;;;;1750221;82;21496;-71
2022/04/04 14:30:03;;;;;;;4.42;2.98;;;;;;;;;;1750250;82;21001;-71
2022/04/04 14:32:29;;;;;;;4.55;2.70;;;;;;;;;;1750043;82;21100;-71
2022/04/04 14:34:57;;;;;;;4.05;2.80;;;;;;;;;;1750405;82;21040;-71
2022/04/04 14:37:24;;;;;;;5.25;2.65;;;;;;;;;;1750035;82;21064;-71
2022/04/04 14:39:50;;;;;;;3.65;2.40;;;;;;;;;;1750099;82;21056;-71
2022/04/04 14:42:16;;;;;;;5.53;2.85;;;;;;;;;;1750388;82;21073;-71
2022/04/04 14:44:48;;;;;;;4.60;3.20;;;;;;;;;;1750347;82;20969;-71
2022/04/04 14:47:11;;;;;;;4.47;3.00;;;;;;;;;;1749511;82;21044;-71
2022/04/04 14:49:38;;;;;;;4.75;2.87;;;;;;;;;;1750261;82;21064;-70
2022/04/04 14:52:05;;;;;;;5.85;3.12;;;;;;;;;;1750041;82;21013;-71
2022/04/04 14:54:32;;;;;;;4.92;3.37;;;;;;;;;;1750365;82;21048;-71
2022/04/04 14:57:01;;;;;;;5.30;3.08;;;;;;;;;;1750024;82;21060;-70
2022/04/04 14:59:27;;;;;;;5.72;3.10;;;;;;;;;;1750011;82;21104;-71
2022/04/04 15:01:53;;;;;;;4.25;2.72;;;;;;;;;;1750171;82;21049;-69
2022/04/04 15:04:21;;;;;;;4.08;3.10;;;;;;;;;;1750071;82;21132;-72
2022/04/04 15:06:49;;;;;;;4.10;2.58;;;;;;;;;;1749938;82;21572;-70
2022/04/04 15:09:16;;;;;;;3.85;2.67;;;;;;;;;;1749953;82;21599;-71
2022/04/04 15:11:44;;;;;;;5.83;3.00;;;;;;;;;;1749992;82;21088;-71
2022/04/04 15:14:12;;;;;;;6.53;3.27;;;;;;;;;;1749058;82;21132;-70
2022/04/04 15:16:38;;;;;;;4.15;2.62;;;;;;;;;;1741544;82;21049;-71
2022/04/04 15:19:04;;;;;;;4.58;2.62;;;;;;;;;;1741860;82;21033;-71
2022/04/04 15:21:31;;;;;;;4.72;3.00;;;;;;;;;;1741537;82;21084;-71
2022/04/04 15:24:00;;;;;;;7.37;3.70;;;;;;;;;;1741483;82;21687;-69
2022/04/04 15:26:28;;;;;;;6.53;3.70;;;;;;;;;;1741948;82;21579;-72
2022/04/04 15:28:54;;;;;;;8.33;3.83;;;;;;;;;;1741519;82;21124;-69
2022/04/04 15:31:21;;;;;;;8.63;4.25;;;;;;;;;;1741671;82;21076;-69
2022/04/04 15:33:49;;;;;;;5.95;3.25;;;;;;;;;;1741604;82;21084;-69
2022/04/04 15:36:17;;;;;;;3.90;2.90;;;;;;;;;;1741489;82;21493;-69
2022/04/04 15:38:44;;;;;;;7.80;4.33;;;;;;;;;;1741856;82;21029;-69
2022/04/04 15:41:10;;;;;;;7.75;3.70;;;;;;;;;;1741661;82;21072;-69
2022/04/04 15:43:38;;;;;;;6.92;3.22;;;;;;;;;;1742022;82;21044;-69
2022/04/04 15:46:05;;;;;;;8.53;3.60;;;;;;;;;;1741693;82;21093;-69
2022/04/04 15:48:32;;;;;;;7.22;3.85;;;;;;;;;;1741834;82;21037;-71
2022/04/04 15:50:58;;;;;;;5.30;3.37;;;;;;;;;;1742072;82;21559;-69
2022/04/04 15:53:24;;;;;;;6.90;3.65;;;;;;;;;;1741623;82;21081;-69
2022/04/04 15:55:50;;;;;;;8.48;4.33;;;;;;;;;;1741904;82;21580;-69
2022/04/04 15:58:16;;;;;;;8.45;3.80;;;;;;;;;;1741832;82;21009;-69
2022/04/04 16:00:44;;;;;;;5.60;3.15;;;;;;;;;;1741974;82;21037;-69
2022/04/04 16:03:10;;;;;;;5.37;2.87;;;;;;;;;;1741792;81;21116;-69